Flight Track Log - Related Links

Times and Time Zones

All times are in EDT time to prevent confusion due to time zone crossing. See the UPS2752 flight status page for this flight to view local times or setup timezone preferences in your user account.

Time Position Orientation Groundspeed Altitude Reporting Facility
EDT Latitude Longitude Course Direction KTS MPH feet Rate Location/Type
Mon 05:22:00 PM 38.1078 -85.7334 215° Southwest 241 277 3,400  Level FlightAware ADS-B
Mon 05:23:10 PM 38.0769 -85.8190 266° West 253 291 7,800 3,316 Climbing FlightAware ADS-B
Mon 05:24:32 PM 38.0673 -85.9510 264° West 290 334 11,800 2,835 Climbing FlightAware ADS-B
Mon 05:24:41 PM 38.0628 -85.9662 249° West 312 359 12,100 1,909 Climbing FlightAware ADS-B
Mon 05:25:16 PM 38.0458 -86.0280 252° West 351 404 13,200 1,955 Climbing FlightAware ADS-B
Mon 05:26:10 PM 38.0156 -86.1405 251° West 396 456 15,000 2,505 Climbing FlightAware ADS-B
Mon 05:26:47 PM 37.9923 -86.2247 251° West 403 464 17,000 2,866 Climbing FlightAware ADS-B
Mon 05:27:17 PM 37.9740 -86.2903 251° West 416 479 18,200 2,400 Climbing FlightAware ADS-B
Mon 05:27:47 PM 37.9543 -86.3616 251° West 426 490 19,400 2,507 Climbing FlightAware ADS-B
Mon 05:28:24 PM 37.9294 -86.4516 251° West 442 509 21,000 2,108 Climbing FlightAware ADS-B
Mon 05:29:01 PM 37.9040 -86.5428 251° West 449 517 22,000 1,929 Climbing FlightAware ADS-B
Mon 05:29:48 PM 37.8715 -86.6589 251° West 462 532 23,700 1,978 Climbing FlightAware ADS-B
Mon 05:30:32 PM 37.8396 -86.7720 251° West 476 548 25,000 1,520 Climbing FlightAware ADS-B
Mon 05:31:03 PM 37.8233 -86.8294 251° West 476 548 25,600 1,538 Climbing Memphis Center
Mon 05:31:50 PM 37.8006 -86.9497 257° West 485 558 27,000 2,333 Climbing Indianapolis Center
Mon 05:32:51 PM 37.7703 -87.1553 260° West 487 560 29,800 2,293 Climbing Indianapolis Center
Mon 05:33:53 PM 37.7453 -87.3083 258° West 488 562 31,700 1,935 Climbing Indianapolis Center
Mon 05:34:55 PM 37.7114 -87.4714 255° West 487 560 33,800 1,122 Climbing Indianapolis Center
Mon 05:35:56 PM 37.6658 -87.6289 250° West 479 551 34,000 98 Climbing Indianapolis Center
Mon 05:36:58 PM 37.6103 -87.8164 250° West 481 554 34,000  Level Indianapolis Center
Mon 05:38:00 PM 37.5617 -87.9769 249° West 485 558 34,000  Level Indianapolis Center
Mon 05:39:02 PM 37.5133 -88.1392 249° West 488 562 34,000  Level Indianapolis Center
Mon 05:40:03 PM 37.4633 -88.3006 249° West 489 563 34,000  Level Indianapolis Center
Mon 05:41:05 PM 37.4142 -88.4611 249° West 489 563 34,000  Level Indianapolis Center
Mon 05:42:07 PM 37.3683 -88.6058 248° West 488 562 34,000  Level Indianapolis Center
Mon 05:43:09 PM 37.3103 -88.7936 249° West 484 557 34,000  Level Indianapolis Center
Mon 05:44:10 PM 37.2622 -88.9494 249° West 480 552 34,000  Level Indianapolis Center
Mon 05:45:12 PM 37.2128 -89.1039 248° West 479 551 34,000  Level Indianapolis Center
Mon 05:46:14 PM 37.1597 -89.2711 248° West 479 551 34,000 42 Level Indianapolis Center
Mon 05:47:35 PM 37.0964 -89.4722 249° West 483 556 34,100 42 Climbing Memphis Center
Mon 05:48:37 PM 37.0475 -89.6242 248° West 485 558 34,100 -48 Level Memphis Center
Mon 05:49:39 PM 36.9972 -89.7794 248° West 485 558 34,000 242 Descending Memphis Center
Mon 05:50:41 PM 36.9361 -89.9683 248° West 481 554 34,600 484 Climbing Memphis Center
Mon 05:51:43 PM 36.8861 -90.1211 248° West 489 563 35,000 194 Climbing Memphis Center
Mon 05:52:45 PM 36.8353 -90.2761 248° West 487 560 35,000  Level Memphis Center
Mon 05:53:47 PM 36.7844 -90.4300 248° West 485 558 35,000  Level Memphis Center
Mon 05:54:48 PM 36.7331 -90.5856 248° West 485 558 35,000  Level Memphis Center
Mon 05:55:50 PM 36.6817 -90.7406 248° West 486 559 35,000 97 Level Memphis Center
Mon 05:56:52 PM 36.6192 -90.9256 247° West 485 558 35,200 484 Climbing Memphis Center
Mon 05:57:54 PM 36.5372 -91.0575 232° Southwest 487 560 36,000 387 Climbing Memphis Center
Mon 05:58:56 PM 36.4381 -91.1728 223° Southwest 488 562 36,000  Level Memphis Center
Mon 05:59:58 PM 36.3389 -91.2867 223° Southwest 488 562 36,000  Level Memphis Center
Mon 06:01:00 PM 36.2400 -91.4003 223° Southwest 487 560 36,000  Level Memphis Center
Mon 06:02:02 PM 36.1411 -91.5125 223° Southwest 485 558 36,000  Level Memphis Center
Mon 06:03:04 PM 36.0228 -91.6472 223° Southwest 484 557 36,000  Level Memphis Center
Mon 06:04:06 PM 35.9244 -91.7586 223° Southwest 484 557 36,000  Level Memphis Center
Mon 06:05:08 PM 35.8256 -91.8700 222° Southwest 483 556 36,000  Level Memphis Center
Mon 06:06:10 PM 35.7267 -91.9814 222° Southwest 482 555 36,000  Level Memphis Center
Mon 06:07:12 PM 35.6278 -92.0922 222° Southwest 481 554 36,000  Level Memphis Center
Mon 06:08:14 PM 35.5286 -92.2028 222° Southwest 481 554 36,000  Level Memphis Center
Mon 06:09:16 PM 35.4094 -92.3356 222° Southwest 480 552 36,000  Level Memphis Center
Mon 06:10:18 PM 35.3092 -92.4467 222° Southwest 481 554 36,000  Level Memphis Center
Mon 06:11:20 PM 35.2078 -92.5583 222° Southwest 483 556 36,000  Level Memphis Center
Mon 06:12:22 PM 35.1056 -92.6706 222° Southwest 485 558 36,000 48 Level Memphis Center
Mon 06:13:24 PM 35.0031 -92.7833 222° Southwest 488 562 36,100  Climbing Memphis Center
Mon 06:14:26 PM 34.9000 -92.8953 222° Southwest 490 564 36,000 -48 Descending Memphis Center
Mon 06:15:28 PM 34.7972 -93.0075 222° Southwest 491 565 36,000  Level Memphis Center
Mon 06:16:30 PM 34.6947 -93.1186 222° Southwest 491 565 36,000  Level Memphis Center
Mon 06:17:32 PM 34.5725 -93.2500 222° Southwest 490 564 36,000  Level Memphis Center
Mon 06:18:34 PM 34.4753 -93.3544 222° Southwest 463 533 36,000  Level Memphis Center
Mon 06:19:36 PM 34.3800 -93.4569 222° Southwest 460 529 36,000  Level Memphis Center
Mon 06:20:38 PM 34.3006 -93.5914 234° Southwest 460 529 36,000  Level Memphis Center
Mon 06:22:44 PM 34.2192 -93.8819 251° West 460 529 36,000 -32 Level Fort Worth Center
Mon 06:23:46 PM 34.1792 -94.0256 251° West 457 526 35,900 -581 Descending Fort Worth Center
Mon 06:24:48 PM 34.1322 -94.1931 251° West 440 506 34,800 -1,065 Descending Fort Worth Center
Mon 06:25:50 PM 34.0942 -94.3289 251° West 431 496 33,700 -960 Descending Fort Worth Center
Mon 06:26:53 PM 34.0561 -94.4628 251° West 427 491 32,800 -912 Descending Fort Worth Center
Mon 06:27:55 PM 34.0147 -94.6103 251° West 480 552 31,800 -919 Descending Fort Worth Center
Mon 06:28:57 PM 33.9706 -94.7619 251° West 483 556 30,900 -1,016 Descending Fort Worth Center
Mon 06:29:59 PM 33.9192 -94.9411 251° West 477 549 29,700 -1,065 Descending Fort Worth Center
Mon 06:31:01 PM 33.8764 -95.0892 251° West 472 543 28,700 -968 Descending Fort Worth Center
Mon 06:32:03 PM 33.8333 -95.2372 251° West 472 543 27,700 -968 Descending Fort Worth Center
Mon 06:33:05 PM 33.7908 -95.3825 251° West 467 537 26,700 -1,306 Descending Fort Worth Center
Mon 06:34:07 PM 33.7489 -95.5264 251° West 459 528 25,000 -2,016 Descending Fort Worth Center
Mon 06:35:10 PM 33.7036 -95.6786 250° West 446 513 22,500 -2,256 Descending Fort Worth Center
Mon 06:36:12 PM 33.6633 -95.8144 250° West 433 498 20,300 -2,274 Descending Fort Worth Center
Mon 06:37:14 PM 33.6186 -95.9656 250° West 417 480 17,800 -2,419 Descending Fort Worth Center
Mon 06:38:16 PM 33.5692 -96.0978 246° West 408 470 15,300 -2,226 Descending Fort Worth Center
Mon 06:39:18 PM 33.5089 -96.2064 236° Southwest 383 441 13,200 -1,742 Descending Fort Worth Center
Mon 06:40:20 PM 33.4469 -96.3136 235° Southwest 355 409 11,700 -1,065 Descending Fort Worth Center
Mon 06:41:22 PM 33.3961 -96.4014 235° Southwest 308 354 11,000 -1,039 Descending Fort Worth Center
Mon 06:46:47 PM 33.1540 -96.8098 235° Southwest 264 304 5,000 -1,058 Descending FlightAware ADS-B
Mon 06:47:08 PM 33.1435 -96.8377 258° West 267 307 4,900 -585 Descending FlightAware ADS-B
Mon 06:47:28 PM 33.1405 -96.8666 263° West 266 306 4,600 -1,333 Descending FlightAware ADS-B
Mon 06:47:44 PM 33.1382 -96.8869 262° West 266 306 4,100 -696 Descending FlightAware ADS-B
Mon 06:49:46 PM 33.0945 -97.0380 226° Southwest 215 247 3,000 -478 Descending FlightAware ADS-B
Mon 06:50:02 PM 33.0845 -97.0505 220° Southwest 195 224 3,000  Level FlightAware ADS-B
Mon 06:50:19 PM 33.0694 -97.0548 163° South 158 182 3,000  Level FlightAware ADS-B
Mon 06:50:27 PM 33.0630 -97.0527 171° South 157 181 3,000  Level FlightAware ADS-B
Mon 06:50:39 PM 33.0572 -97.0530 188° South 155 178 3,000  Level FlightAware ADS-B
Mon 06:50:55 PM 33.0455 -97.0541 177° South 154 177 3,000 -333 Level FlightAware ADS-B
Mon 06:51:15 PM 33.0291 -97.0531 179° South 154 177 2,800 -727 Descending FlightAware ADS-B
Mon 06:51:28 PM 33.0232 -97.0557 204° Southwest 155 178 2,600 -1,143 Descending FlightAware ADS-B
Mon 06:51:36 PM 33.0180 -97.0579 194° South 150 173 2,400 -900 Descending FlightAware ADS-B
Mon 06:51:48 PM 33.0091 -97.0574 163° South 150 173 2,300 -692 Descending FlightAware ADS-B
Mon 06:52:28 PM 32.9807 -97.0542 178° South 149 171 1,800 -689 Descending FlightAware ADS-B
Mon 06:52:49 PM 32.9780 -97.0542 178° South 148 170 1,600 -684 Descending FlightAware ADS-B
Mon 06:53:47 PM 32.9264 -97.0556 178° South 152 175 900 -400 Descending Fort Worth Center
Mon 06:54:49 PM 32.8875 -97.0544 179° South 152 175 800 -97 Descending Fort Worth Center

Login

Don't have an account? Register now (free) for customized features, flight alerts, and more!